CheckWX is a tool to help pilots better visualize weather data.  It is not intended as a substitute for an official pre-flight weather briefing.

06:10:22 UTC

KABI METAR
Abilene Regional Airport
Abilene, Texas, USA
Current

18 mins ago

KABI 230552Z 14010KT 10SM SCT043 20/16 A2998 RMK AO2 SLP131 T02000156 10239 20200 402670178 58000
Observed
Apr-23 @ 05:52 UTC
Wind
  • 140° at 10 KTS
Visibility
10 SM
Flight Rules
VFR
Cloud Levels
  • Scattered at 4,300' AGL
Temperature
20°C / 68°F
Dewpoint
16°C / 61°F
Humidity
78%
Altimeter
29.98" Hg
Pressure
1015.22 hPa
Previous

1 hour ago

KABI 230452Z 14010KT 10SM FEW048 OVC060 21/16 A2998 RMK AO2 SLP130 T02110156
Observed
Apr-23 @ 04:52 UTC
Wind
  • 140° at 10 KTS
Visibility
10 SM
Flight Rules
VFR
Cloud Levels
  • Few at 4,800' AGL
  • Overcast at 6,000' AGL
Temperature
21°C / 70°F
Dewpoint
16°C / 61°F
Humidity
73%
Altimeter
29.98" Hg
Pressure
1015.22 hPa
Previous

2 hours ago

KABI 230352Z 13010KT 10SM OVC055 22/16 A2999 RMK AO2 SLP135 T02170156
Observed
Apr-23 @ 03:52 UTC
Wind
  • 130° at 10 KTS
Visibility
10 SM
Flight Rules
VFR
Cloud Levels
  • Overcast at 5,500' AGL
Temperature
22°C / 72°F
Dewpoint
16°C / 61°F
Humidity
69%
Altimeter
29.99" Hg
Pressure
1015.62 hPa